createdAt,value
2022-10-30T00:01:03.715Z,57.33
2022-10-30T00:03:06.227Z,57.49
2022-10-30T00:05:08.609Z,57.54
2022-10-30T00:07:10.387Z,57.43
2022-10-30T00:09:12.104Z,57.54
2022-10-30T00:11:14.106Z,57.27
2022-10-30T00:13:16.161Z,57.61
2022-10-30T00:15:18.013Z,57.40
2022-10-30T00:17:19.668Z,57.54
2022-10-30T00:19:21.322Z,57.28
2022-10-30T00:21:23.073Z,57.31
2022-10-30T00:23:24.594Z,57.29
2022-10-30T00:25:26.275Z,57.30
2022-10-30T00:27:28.013Z,57.38
2022-10-30T00:29:29.680Z,57.44
2022-10-30T00:31:31.312Z,57.32
2022-10-30T00:33:33.459Z,57.26
2022-10-30T00:35:35.251Z,57.30
2022-10-30T00:37:37.519Z,57.46
2022-10-30T00:39:39.251Z,57.37
2022-10-30T00:41:42.875Z,57.43
2022-10-30T00:43:44.729Z,57.55
2022-10-30T00:45:46.354Z,57.51
2022-10-30T00:48:00.747Z,57.57
2022-10-30T00:50:08.022Z,57.62
2022-10-30T00:52:10.849Z,57.49
2022-10-30T00:54:15.840Z,57.55
2022-10-30T00:56:22.972Z,57.61
2022-10-30T00:58:29.465Z,57.59
2022-10-30T01:00:31.595Z,57.56
2022-10-30T01:02:33.585Z,57.63
2022-10-30T01:04:38.111Z,57.47
2022-10-30T01:06:43.164Z,57.57
2022-10-30T01:08:48.690Z,57.54
2022-10-30T01:10:51.185Z,57.50
2022-10-30T01:12:55.117Z,57.45
2022-10-30T01:14:58.921Z,57.61
2022-10-30T01:17:19.121Z,57.92
2022-10-30T01:19:38.992Z,57.59
2022-10-30T01:21:57.336Z,57.66
2022-10-30T01:24:05.125Z,57.83
2022-10-30T01:26:23.182Z,57.52
2022-10-30T01:28:44.232Z,57.70
2022-10-30T01:31:04.536Z,57.69
2022-10-30T01:33:23.425Z,57.61
2022-10-30T01:35:49.151Z,57.70
2022-10-30T01:38:15.389Z,57.74
2022-10-30T01:40:20.209Z,57.73
2022-10-30T01:42:46.760Z,57.87
2022-10-30T01:44:50.813Z,57.75
2022-10-30T01:47:29.908Z,57.83
2022-10-30T01:49:59.570Z,57.94
2022-10-30T01:52:27.978Z,57.92
2022-10-30T01:54:34.319Z,57.93
2022-10-30T01:56:58.077Z,57.92
2022-10-30T01:59:28.801Z,57.95
2022-10-30T02:01:36.799Z,57.88
2022-10-30T02:03:39.414Z,57.90
2022-10-30T02:05:49.029Z,57.63
2022-10-30T02:07:53.111Z,57.82
2022-10-30T02:09:55.787Z,57.86
2022-10-30T02:11:58.210Z,57.87
2022-10-30T02:14:04.466Z,57.91
2022-10-30T02:16:06.864Z,57.98
2022-10-30T02:18:09.462Z,57.97
2022-10-30T02:20:19.050Z,57.90
2022-10-30T02:22:21.233Z,57.95
2022-10-30T02:24:23.684Z,58.04
2022-10-30T02:26:25.302Z,57.97
2022-10-30T02:28:26.902Z,57.98
2022-10-30T02:30:31.995Z,58.07
2022-10-30T02:32:36.083Z,58.07
2022-10-30T02:34:37.730Z,58.00
2022-10-30T02:36:39.420Z,57.92
2022-10-30T02:38:41.737Z,57.98
2022-10-30T02:40:43.316Z,58.35
2022-10-30T02:42:44.997Z,58.17
2022-10-30T02:44:46.845Z,58.15
2022-10-30T02:46:48.499Z,58.12
2022-10-30T02:48:50.199Z,58.03
2022-10-30T02:50:51.830Z,58.12
2022-10-30T02:52:53.510Z,58.08
2022-10-30T02:54:55.183Z,58.20
2022-10-30T02:56:56.978Z,58.26
2022-10-30T02:58:58.635Z,58.11
2022-10-30T03:01:18.168Z,58.28
2022-10-30T03:03:23.161Z,58.21
2022-10-30T03:05:25.873Z,58.20
2022-10-30T03:07:27.674Z,58.10
2022-10-30T03:09:29.356Z,58.20
2022-10-30T03:11:30.945Z,58.14
2022-10-30T03:13:34.354Z,58.21
2022-10-30T03:15:36.183Z,58.27
2022-10-30T03:17:38.614Z,58.22
2022-10-30T03:19:41.014Z,58.34
2022-10-30T03:21:43.756Z,58.29
2022-10-30T03:23:50.541Z,58.39
2022-10-30T03:25:57.548Z,58.34
2022-10-30T03:28:00.141Z,58.48
2022-10-30T03:30:02.609Z,58.57
2022-10-30T03:32:05.032Z,58.42
2022-10-30T03:34:11.246Z,58.49
2022-10-30T03:36:16.797Z,58.50
2022-10-30T03:38:18.474Z,58.40
2022-10-30T03:40:20.469Z,58.55
2022-10-30T03:42:22.182Z,58.40
2022-10-30T03:44:29.571Z,58.49
2022-10-30T03:46:31.942Z,58.32
2022-10-30T03:48:51.421Z,58.37
2022-10-30T03:50:57.948Z,58.42
2022-10-30T03:53:01.159Z,58.37
2022-10-30T03:55:03.228Z,58.42
2022-10-30T03:57:05.110Z,58.44
2022-10-30T03:59:15.934Z,58.29
2022-10-30T04:01:25.409Z,58.34
2022-10-30T04:03:35.017Z,58.42
2022-10-30T04:05:37.835Z,58.64
2022-10-30T04:07:39.508Z,58.61
2022-10-30T04:09:41.002Z,58.50
2022-10-30T04:11:43.734Z,58.57
2022-10-30T04:13:45.471Z,58.56
2022-10-30T04:15:56.367Z,58.71
2022-10-30T04:18:03.381Z,58.74
2022-10-30T04:20:06.565Z,58.68
2022-10-30T04:22:08.628Z,58.83
2022-10-30T04:24:16.114Z,58.77
2022-10-30T04:26:20.203Z,58.76
2022-10-30T04:28:22.114Z,58.68
2022-10-30T04:30:27.725Z,58.57
2022-10-30T04:32:29.450Z,58.45
2022-10-30T04:34:33.974Z,58.47
2022-10-30T04:36:36.415Z,58.51
2022-10-30T04:38:40.724Z,58.42
2022-10-30T04:40:46.125Z,58.49
2022-10-30T04:42:48.951Z,58.34
2022-10-30T04:44:52.149Z,58.43
2022-10-30T04:46:54.009Z,58.41
2022-10-30T04:48:55.825Z,58.37
2022-10-30T04:51:00.561Z,58.32
2022-10-30T04:53:10.465Z,58.36
2022-10-30T04:55:12.115Z,58.35
2022-10-30T04:57:16.337Z,58.34
2022-10-30T04:59:18.924Z,58.34
2022-10-30T05:01:20.838Z,58.32
2022-10-30T05:03:24.476Z,58.41
2022-10-30T05:05:28.208Z,58.43
2022-10-30T05:07:29.931Z,58.50
2022-10-30T05:09:35.427Z,58.32
2022-10-30T05:11:36.934Z,58.23
2022-10-30T05:13:38.679Z,58.26
2022-10-30T05:15:40.563Z,58.23
2022-10-30T05:17:43.292Z,58.50
2022-10-30T05:19:44.869Z,58.39
2022-10-30T05:21:47.595Z,58.22
2022-10-30T05:23:49.498Z,58.41
2022-10-30T05:25:51.892Z,58.30
2022-10-30T05:28:03.260Z,58.35
2022-10-30T05:30:09.596Z,58.07
2022-10-30T05:32:11.323Z,58.31
2022-10-30T05:34:16.148Z,58.44
2022-10-30T05:36:19.304Z,58.37
2022-10-30T05:38:21.981Z,58.29
2022-10-30T05:40:25.531Z,58.28
2022-10-30T05:42:27.229Z,58.20
2022-10-30T05:44:58.733Z,58.29
2022-10-30T05:46:53.660Z,58.24
2022-10-30T05:49:01.960Z,58.33
2022-10-30T05:51:04.460Z,58.44
2022-10-30T05:53:06.479Z,58.42
2022-10-30T05:55:08.776Z,58.42
2022-10-30T05:57:33.196Z,58.30
2022-10-30T05:59:36.098Z,58.23
2022-10-30T06:01:38.250Z,58.34
2022-10-30T06:03:48.926Z,58.41
2022-10-30T06:05:51.236Z,58.43
2022-10-30T06:07:56.724Z,58.40
2022-10-30T06:09:58.378Z,58.45
2022-10-30T06:12:17.591Z,58.35
2022-10-30T06:14:28.607Z,58.29
2022-10-30T06:18:50.906Z,58.34
2022-10-30T06:20:54.884Z,58.41
2022-10-30T06:23:07.457Z,58.47
2022-10-30T06:25:22.238Z,58.59
2022-10-30T06:27:35.294Z,58.84
2022-10-30T06:29:37.914Z,58.77
2022-10-30T06:31:40.903Z,58.62
2022-10-30T06:33:42.796Z,58.89
2022-10-30T06:35:49.375Z,58.76
2022-10-30T06:37:53.646Z,58.79
2022-10-30T06:39:57.786Z,58.61
2022-10-30T06:42:19.901Z,58.75
2022-10-30T06:44:41.225Z,58.63
2022-10-30T06:46:42.941Z,58.83
2022-10-30T06:48:44.611Z,58.80
2022-10-30T06:50:46.727Z,58.96
2022-10-30T06:52:49.531Z,58.78
2022-10-30T06:54:51.930Z,58.70
2022-10-30T06:57:16.741Z,58.85
2022-10-30T06:59:41.001Z,58.77
2022-10-30T07:02:02.478Z,59.11
2022-10-30T07:04:22.662Z,59.07
2022-10-30T07:06:24.694Z,58.91
2022-10-30T07:08:26.449Z,58.97
2022-10-30T07:10:28.615Z,58.89
2022-10-30T07:12:54.013Z,59.10
2022-10-30T07:15:28.516Z,58.95
2022-10-30T07:17:40.588Z,58.90
2022-10-30T07:19:51.025Z,59.03
2022-10-30T07:21:55.567Z,58.89
2022-10-30T07:23:57.704Z,58.93
2022-10-30T07:26:11.602Z,58.93
2022-10-30T07:28:19.312Z,58.98
2022-10-30T07:30:36.686Z,59.03
2022-10-30T07:33:02.473Z,59.16
2022-10-30T07:35:22.998Z,59.13
2022-10-30T07:37:31.698Z,59.14
2022-10-30T07:39:39.464Z,59.26
2022-10-30T07:41:57.136Z,59.60
2022-10-30T07:44:17.728Z,59.51
2022-10-30T07:46:30.490Z,59.62
2022-10-30T07:48:56.376Z,59.78
2022-10-30T07:51:03.992Z,59.73
2022-10-30T07:53:06.653Z,59.92
2022-10-30T07:55:09.629Z,60.02
2022-10-30T07:57:23.174Z,60.14
2022-10-30T08:00:03.922Z,60.33
2022-10-30T08:02:15.683Z,60.15
2022-10-30T08:04:36.521Z,60.14
2022-10-30T08:06:57.956Z,60.97
2022-10-30T08:09:00.112Z,60.60
2022-10-30T08:11:03.184Z,60.64
2022-10-30T08:13:05.746Z,60.57
2022-10-30T08:15:08.566Z,60.60
2022-10-30T08:17:10.705Z,60.69
2022-10-30T08:19:13.793Z,60.75
2022-10-30T08:21:17.122Z,60.56
2022-10-30T08:23:31.367Z,60.86
2022-10-30T08:25:36.441Z,60.96
2022-10-30T08:27:38.209Z,60.87
2022-10-30T08:29:41.607Z,60.78
2022-10-30T08:31:43.368Z,60.97
2022-10-30T08:33:57.291Z,60.97
2022-10-30T08:36:07.451Z,61.31
2022-10-30T08:38:16.843Z,61.77
2022-10-30T08:40:19.791Z,61.33
2022-10-30T08:42:32.007Z,61.25
2022-10-30T08:44:36.195Z,61.28
2022-10-30T08:46:56.548Z,61.14
2022-10-30T08:48:59.928Z,61.00
2022-10-30T08:51:03.840Z,60.77
2022-10-30T08:53:14.368Z,61.13
2022-10-30T08:55:16.173Z,61.13
2022-10-30T08:57:17.744Z,61.11
2022-10-30T08:59:21.409Z,60.97
2022-10-30T09:01:25.840Z,61.16
2022-10-30T09:03:46.480Z,60.81
2022-10-30T09:06:23.359Z,61.08
2022-10-30T09:08:50.969Z,61.13
2022-10-30T09:11:18.828Z,61.36
2022-10-30T09:13:20.445Z,61.04
2022-10-30T09:15:24.014Z,61.01
2022-10-30T09:17:29.861Z,61.13
2022-10-30T09:19:32.045Z,61.06
2022-10-30T09:21:34.253Z,61.27
2022-10-30T09:23:42.209Z,61.18
2022-10-30T09:26:05.515Z,61.02
2022-10-30T09:28:21.898Z,60.98
2022-10-30T09:30:43.848Z,61.02
2022-10-30T09:32:58.372Z,61.14
2022-10-30T09:35:19.711Z,60.80
2022-10-30T09:37:23.314Z,60.77
2022-10-30T09:39:30.175Z,60.92
2022-10-30T09:42:06.030Z,61.04
2022-10-30T09:44:30.107Z,61.10
2022-10-30T09:46:50.687Z,61.03
2022-10-30T09:49:18.787Z,60.91
2022-10-30T09:51:48.134Z,60.73
2022-10-30T09:54:16.855Z,61.14
2022-10-30T09:56:40.007Z,60.86
2022-10-30T09:58:58.577Z,60.75
2022-10-30T10:01:31.589Z,60.87
2022-10-30T10:03:56.962Z,62.21
2022-10-30T10:06:20.552Z,61.90
2022-10-30T10:08:50.972Z,63.43
2022-10-30T10:11:31.201Z,62.42
2022-10-30T10:13:39.920Z,62.80
2022-10-30T10:15:52.055Z,62.91
2022-10-30T10:17:54.201Z,62.32
2022-10-30T10:19:59.648Z,62.40
2022-10-30T10:22:05.642Z,62.26
2022-10-30T10:24:19.655Z,62.94
2022-10-30T10:26:21.730Z,62.24
2022-10-30T10:28:57.025Z,62.09
2022-10-30T10:31:01.393Z,61.27
2022-10-30T10:33:24.557Z,61.42
2022-10-30T10:35:56.096Z,61.05
2022-10-30T10:38:22.673Z,60.21
2022-10-30T10:40:47.227Z,59.98
2022-10-30T10:43:25.789Z,59.07
2022-10-30T10:45:54.913Z,58.66
2022-10-30T10:50:25.892Z,58.03
2022-10-30T10:52:41.742Z,57.34
2022-10-30T10:54:47.707Z,57.32
2022-10-30T10:56:51.797Z,57.45
2022-10-30T10:59:01.725Z,56.78
2022-10-30T11:01:09.768Z,56.74
2022-10-30T11:03:26.000Z,56.01
2022-10-30T11:05:40.040Z,55.73
2022-10-30T11:07:49.723Z,55.43
2022-10-30T11:09:54.179Z,55.27
2022-10-30T11:11:56.370Z,55.04
2022-10-30T11:13:58.647Z,54.89
2022-10-30T11:16:07.091Z,54.21
2022-10-30T11:18:10.823Z,54.21
2022-10-30T11:20:18.607Z,53.71
2022-10-30T11:22:31.760Z,53.74
2022-10-30T11:24:37.078Z,52.95
2022-10-30T11:26:38.888Z,53.11
2022-10-30T11:29:06.433Z,51.79
2022-10-30T11:31:18.508Z,52.32
2022-10-30T11:33:27.489Z,51.88
2022-10-30T11:35:41.706Z,51.76
2022-10-30T11:37:44.877Z,51.78
2022-10-30T11:40:02.752Z,51.49
2022-10-30T11:42:14.611Z,50.94
2022-10-30T11:44:16.438Z,51.59
2022-10-30T11:46:24.640Z,51.59
2022-10-30T11:48:34.122Z,51.08
2022-10-30T11:50:35.974Z,50.46
2022-10-30T11:52:42.172Z,50.23
2022-10-30T11:54:48.421Z,50.23
2022-10-30T11:56:51.024Z,49.95
2022-10-30T11:58:55.570Z,50.02
2022-10-30T12:01:02.951Z,49.56
2022-10-30T12:03:04.760Z,49.70
2022-10-30T12:05:44.883Z,49.05
2022-10-30T12:07:49.251Z,49.32
2022-10-30T12:09:51.183Z,49.11
2022-10-30T12:11:52.914Z,49.40
2022-10-30T12:13:55.539Z,49.22
2022-10-30T12:16:13.090Z,49.36
2022-10-30T12:20:37.672Z,50.05
2022-10-30T12:22:39.789Z,50.08
2022-10-30T12:24:44.299Z,49.98
2022-10-30T12:26:53.016Z,50.17
2022-10-30T12:29:00.843Z,50.27
2022-10-30T12:31:11.549Z,50.08
2022-10-30T12:33:23.694Z,49.50
2022-10-30T12:35:38.692Z,49.23
2022-10-30T12:37:43.723Z,49.53
2022-10-30T12:39:56.169Z,48.86
2022-10-30T12:42:08.955Z,49.68
2022-10-30T12:44:36.669Z,49.64
2022-10-30T12:46:50.266Z,49.68
2022-10-30T12:49:02.594Z,49.17
2022-10-30T12:51:26.200Z,49.63
2022-10-30T12:53:34.580Z,49.85
2022-10-30T12:55:49.913Z,49.96
2022-10-30T12:58:31.442Z,49.87
2022-10-30T13:00:43.906Z,49.91
2022-10-30T13:03:14.328Z,49.99
2022-10-30T13:05:37.183Z,49.85
2022-10-30T13:07:45.582Z,49.74
2022-10-30T13:09:56.030Z,49.47
2022-10-30T13:12:04.562Z,49.82
2022-10-30T13:14:14.040Z,49.21
2022-10-30T13:16:26.121Z,49.35
2022-10-30T13:18:33.443Z,49.57
2022-10-30T13:20:35.807Z,49.15
2022-10-30T13:22:58.309Z,49.23
2022-10-30T13:25:17.537Z,49.40
2022-10-30T13:27:26.951Z,49.33
2022-10-30T13:29:40.833Z,49.31
2022-10-30T13:32:17.041Z,48.74
2022-10-30T13:34:31.311Z,48.90
2022-10-30T13:36:50.658Z,48.47
2022-10-30T13:39:15.323Z,49.25
2022-10-30T13:41:19.692Z,49.26
2022-10-30T13:43:59.326Z,49.43
2022-10-30T13:46:27.054Z,49.30
2022-10-30T13:48:40.905Z,49.15
2022-10-30T13:51:24.356Z,49.41
2022-10-30T13:53:30.821Z,49.25
2022-10-30T13:55:35.866Z,49.32
2022-10-30T13:58:00.076Z,48.78
2022-10-30T14:00:16.901Z,48.61
2022-10-30T14:02:27.850Z,48.62
2022-10-30T14:04:43.721Z,48.91
2022-10-30T14:07:14.726Z,48.55
2022-10-30T14:09:35.308Z,49.00
2022-10-30T14:11:37.159Z,48.77
2022-10-30T14:14:03.528Z,48.73
2022-10-30T14:16:07.449Z,48.81
2022-10-30T14:18:12.396Z,48.64
2022-10-30T14:20:19.709Z,48.64
2022-10-30T14:22:25.053Z,48.63
2022-10-30T14:24:34.503Z,48.83
2022-10-30T14:26:36.387Z,48.99
2022-10-30T14:28:41.350Z,48.57
2022-10-30T14:30:44.498Z,48.99
2022-10-30T14:32:52.375Z,48.50
2022-10-30T14:34:54.772Z,48.79
2022-10-30T14:36:56.480Z,49.07
2022-10-30T14:39:13.187Z,48.46
2022-10-30T14:41:40.967Z,48.39
2022-10-30T14:43:56.421Z,48.35
2022-10-30T14:46:03.847Z,48.53
2022-10-30T14:48:22.357Z,48.37
2022-10-30T14:50:26.673Z,48.49
2022-10-30T14:53:06.177Z,48.41
2022-10-30T14:55:46.890Z,48.91
2022-10-30T14:57:54.181Z,48.79
2022-10-30T15:00:35.039Z,48.85
2022-10-30T15:03:10.474Z,48.76
2022-10-30T15:05:25.212Z,48.70
2022-10-30T15:07:35.605Z,49.19
2022-10-30T15:10:12.710Z,48.92
2022-10-30T15:14:54.542Z,48.82
2022-10-30T15:16:56.369Z,48.91
2022-10-30T15:19:04.747Z,48.89
2022-10-30T15:21:07.776Z,48.48
2022-10-30T15:23:16.440Z,48.92
2022-10-30T15:25:24.370Z,48.79
2022-10-30T15:27:26.781Z,48.84
2022-10-30T15:29:33.448Z,48.67
2022-10-30T15:31:35.163Z,48.42
2022-10-30T15:33:38.065Z,49.05
2022-10-30T15:35:47.348Z,48.67
2022-10-30T15:38:09.962Z,48.51
2022-10-30T15:40:19.117Z,48.94
2022-10-30T15:42:27.063Z,49.00
2022-10-30T15:44:33.202Z,48.88
2022-10-30T15:46:35.252Z,49.01
2022-10-30T15:48:41.843Z,48.79
2022-10-30T15:50:52.449Z,48.75
2022-10-30T15:52:54.646Z,48.76
2022-10-30T15:55:06.942Z,48.81
2022-10-30T15:57:49.370Z,48.97
2022-10-30T15:59:42.176Z,49.52
2022-10-30T16:01:46.195Z,49.64
2022-10-30T16:03:54.116Z,49.37
2022-10-30T16:06:37.613Z,49.39
2022-10-30T16:08:48.477Z,49.66
2022-10-30T16:10:54.172Z,49.56
2022-10-30T16:12:58.151Z,49.75
2022-10-30T16:15:07.944Z,49.83
2022-10-30T16:17:11.195Z,49.64
2022-10-30T16:19:40.602Z,49.98
2022-10-30T16:21:47.081Z,50.06
2022-10-30T16:23:55.136Z,50.24
2022-10-30T16:25:59.255Z,50.33
2022-10-30T16:28:05.127Z,50.17
2022-10-30T16:30:13.977Z,50.19
2022-10-30T16:32:19.094Z,50.51
2022-10-30T16:34:31.780Z,50.63
2022-10-30T16:36:33.543Z,50.47
2022-10-30T16:38:37.619Z,50.72
2022-10-30T16:40:42.165Z,50.72
2022-10-30T16:42:52.723Z,50.71
2022-10-30T16:45:14.938Z,50.73
2022-10-30T16:47:16.510Z,51.00
2022-10-30T16:49:23.806Z,50.97
2022-10-30T16:51:25.701Z,50.97
2022-10-30T16:53:28.574Z,50.84
2022-10-30T16:55:32.913Z,51.06
2022-10-30T16:57:42.356Z,51.13
2022-10-30T16:59:52.016Z,51.18
2022-10-30T17:02:05.884Z,51.12
2022-10-30T17:06:33.732Z,51.18
2022-10-30T17:08:43.267Z,51.16
2022-10-30T17:10:48.050Z,51.21
2022-10-30T17:12:51.572Z,51.48
2022-10-30T17:15:06.401Z,51.44
2022-10-30T17:17:32.405Z,51.22
2022-10-30T17:19:45.441Z,51.44
2022-10-30T17:21:57.523Z,51.51
2022-10-30T17:24:00.491Z,51.30
2022-10-30T17:26:10.650Z,51.53
2022-10-30T17:28:33.042Z,51.91
2022-10-30T17:30:42.713Z,51.88
2022-10-30T17:32:45.139Z,52.11
2022-10-30T17:34:50.506Z,51.84
2022-10-30T17:36:54.881Z,52.06
2022-10-30T17:38:56.605Z,51.68
2022-10-30T17:40:58.775Z,52.17
2022-10-30T17:43:00.414Z,51.92
2022-10-30T17:45:02.064Z,51.59
2022-10-30T17:47:18.557Z,52.07
2022-10-30T17:49:31.477Z,52.26
2022-10-30T17:51:33.226Z,52.10
2022-10-30T17:53:35.636Z,52.12
2022-10-30T17:55:38.999Z,51.94
2022-10-30T17:57:40.666Z,52.40
2022-10-30T17:59:43.167Z,52.29
2022-10-30T18:01:45.116Z,51.93
2022-10-30T18:03:50.131Z,52.23
2022-10-30T18:05:52.441Z,52.45
2022-10-30T18:07:54.125Z,52.44
2022-10-30T18:09:55.657Z,52.36
2022-10-30T18:11:57.298Z,52.41
2022-10-30T18:14:02.278Z,52.18
2022-10-30T18:16:09.105Z,52.36
2022-10-30T18:18:13.854Z,52.63
2022-10-30T18:20:15.527Z,52.45
2022-10-30T18:22:17.034Z,52.70
2022-10-30T18:24:18.800Z,52.75
2022-10-30T18:26:25.297Z,52.79
2022-10-30T18:28:29.256Z,52.86
2022-10-30T18:30:31.517Z,53.05
2022-10-30T18:32:33.236Z,52.89
2022-10-30T18:34:34.791Z,52.86
2022-10-30T18:36:36.369Z,53.40
2022-10-30T18:38:38.237Z,53.14
2022-10-30T18:40:40.701Z,53.45
2022-10-30T18:42:45.373Z,53.53
2022-10-30T18:44:46.960Z,53.72
2022-10-30T18:46:48.735Z,53.65
2022-10-30T18:48:50.509Z,53.96
2022-10-30T18:50:52.340Z,53.64
2022-10-30T18:52:54.168Z,53.50
2022-10-30T18:54:56.040Z,53.37
2022-10-30T18:57:03.066Z,53.47
2022-10-30T18:59:05.372Z,53.59
2022-10-30T19:01:12.545Z,53.58
2022-10-30T19:03:14.607Z,53.74
2022-10-30T19:05:22.810Z,53.37
2022-10-30T19:07:24.902Z,53.31
2022-10-30T19:09:26.476Z,53.66
2022-10-30T19:11:32.123Z,53.69
2022-10-30T19:13:33.940Z,53.51
2022-10-30T19:15:38.526Z,53.39
2022-10-30T19:17:40.120Z,53.38
2022-10-30T19:19:54.070Z,53.33
2022-10-30T19:21:55.721Z,53.44
2022-10-30T19:24:00.027Z,53.23
2022-10-30T19:26:01.739Z,53.18
2022-10-30T19:28:03.630Z,53.32
2022-10-30T19:30:06.900Z,53.57
2022-10-30T19:32:11.483Z,53.53
2022-10-30T19:34:13.163Z,53.60
2022-10-30T19:36:33.702Z,53.51
2022-10-30T19:38:35.513Z,53.29
2022-10-30T19:40:38.542Z,53.42
2022-10-30T19:42:40.222Z,53.19
2022-10-30T19:44:41.905Z,53.46
2022-10-30T19:46:43.461Z,53.46
2022-10-30T19:48:57.170Z,53.43
2022-10-30T19:50:59.775Z,53.47
2022-10-30T19:53:02.492Z,53.58
2022-10-30T19:55:07.788Z,53.45
2022-10-30T19:57:13.782Z,53.43
2022-10-30T19:59:15.973Z,53.56
2022-10-30T20:01:23.519Z,53.42
2022-10-30T20:03:32.973Z,53.73
2022-10-30T20:05:43.113Z,53.54
2022-10-30T20:08:06.629Z,53.56
2022-10-30T20:10:20.322Z,53.74
2022-10-30T20:12:21.893Z,53.64
2022-10-30T20:14:25.908Z,53.68
2022-10-30T20:16:27.518Z,53.79
2022-10-30T20:18:31.868Z,53.87
2022-10-30T20:20:35.154Z,53.77
2022-10-30T20:22:36.936Z,53.94
2022-10-30T20:24:38.380Z,54.10
2022-10-30T20:26:41.905Z,54.11
2022-10-30T20:28:44.758Z,54.05
2022-10-30T20:30:46.754Z,54.09
2022-10-30T20:32:51.030Z,54.07
2022-10-30T20:34:53.300Z,54.14
2022-10-30T20:36:54.875Z,54.23
2022-10-30T20:38:56.729Z,54.27
2022-10-30T20:41:01.049Z,54.20
2022-10-30T20:43:03.368Z,54.10
2022-10-30T20:45:05.782Z,54.21
2022-10-30T20:47:07.837Z,54.23
2022-10-30T20:49:17.165Z,54.16
2022-10-30T20:51:19.922Z,54.16
2022-10-30T20:53:21.910Z,54.20
2022-10-30T20:55:23.695Z,54.27
2022-10-30T20:57:25.462Z,54.21
2022-10-30T20:59:28.572Z,54.32
2022-10-30T21:01:30.537Z,54.22
2022-10-30T21:03:42.767Z,54.30
2022-10-30T21:05:55.520Z,54.28
2022-10-30T21:07:58.012Z,54.26
2022-10-30T21:10:02.959Z,54.24
2022-10-30T21:12:04.932Z,54.42
2022-10-30T21:14:06.636Z,54.30
2022-10-30T21:16:09.132Z,54.27
2022-10-30T21:18:13.081Z,54.30
2022-10-30T21:20:16.192Z,54.50
2022-10-30T21:22:17.836Z,54.48
2022-10-30T21:24:19.599Z,54.67
2022-10-30T21:26:21.539Z,54.59
2022-10-30T21:28:24.687Z,54.61
2022-10-30T21:30:26.627Z,54.65
2022-10-30T21:32:31.055Z,54.59
2022-10-30T21:34:32.619Z,54.54
2022-10-30T21:36:34.344Z,54.50
2022-10-30T21:38:36.690Z,54.69
2022-10-30T21:40:38.525Z,54.57
2022-10-30T21:42:40.144Z,54.63
2022-10-30T21:44:41.773Z,54.66
2022-10-30T21:46:43.484Z,54.54
2022-10-30T21:48:45.137Z,54.72
2022-10-30T21:50:46.849Z,54.68
2022-10-30T21:52:51.245Z,54.63
2022-10-30T21:54:52.905Z,54.75
2022-10-30T21:56:54.674Z,54.64
2022-10-30T21:58:59.391Z,54.66
2022-10-30T22:01:01.229Z,54.74
2022-10-30T22:03:02.928Z,54.68
2022-10-30T22:05:04.811Z,54.80
2022-10-30T22:07:06.448Z,54.79
2022-10-30T22:09:08.905Z,54.70
2022-10-30T22:11:11.160Z,54.68
2022-10-30T22:15:19.383Z,54.64
2022-10-30T22:17:21.058Z,54.56
2022-10-30T22:19:22.759Z,54.80
2022-10-30T22:21:25.161Z,54.80
2022-10-30T22:23:35.765Z,54.74
2022-10-30T22:25:37.287Z,54.71
2022-10-30T22:27:39.105Z,54.72
2022-10-30T22:29:40.693Z,54.86
2022-10-30T22:31:42.257Z,55.08
2022-10-30T22:33:43.959Z,55.03
2022-10-30T22:35:46.012Z,55.12
2022-10-30T22:37:47.592Z,55.06
2022-10-30T22:39:49.068Z,55.08
2022-10-30T22:41:50.896Z,55.09
2022-10-30T22:43:56.984Z,55.20
2022-10-30T22:45:58.473Z,55.06
2022-10-30T22:48:00.359Z,55.11
2022-10-30T22:50:05.958Z,55.07
2022-10-30T22:52:07.576Z,55.27
2022-10-30T22:54:14.449Z,55.16
2022-10-30T22:56:19.257Z,55.09
2022-10-30T22:58:22.104Z,55.35
2022-10-30T23:00:27.741Z,55.19
2022-10-30T23:02:29.482Z,55.02
2022-10-30T23:04:31.071Z,55.19
2022-10-30T23:06:34.489Z,55.18
2022-10-30T23:08:36.710Z,55.17
2022-10-30T23:10:38.204Z,55.09
2022-10-30T23:12:39.996Z,55.13
2022-10-30T23:14:41.784Z,55.21
2022-10-30T23:16:43.429Z,55.10
2022-10-30T23:18:45.794Z,55.19
2022-10-30T23:20:50.108Z,55.05
2022-10-30T23:22:51.829Z,55.18
2022-10-30T23:24:53.394Z,55.06
2022-10-30T23:26:55.309Z,55.18
2022-10-30T23:28:58.498Z,55.12
2022-10-30T23:31:00.161Z,55.07
2022-10-30T23:33:02.080Z,55.15
2022-10-30T23:35:04.321Z,55.37
2022-10-30T23:37:06.091Z,55.21
2022-10-30T23:39:11.169Z,55.27
2022-10-30T23:41:12.888Z,55.29
2022-10-30T23:45:23.250Z,55.47
2022-10-30T23:47:24.916Z,55.48
2022-10-30T23:49:29.007Z,55.50
2022-10-30T23:51:36.022Z,55.67
2022-10-30T23:53:37.573Z,55.75
2022-10-30T23:55:39.400Z,55.61
2022-10-30T23:57:48.001Z,55.66
2022-10-30T23:59:49.513Z,55.61
